sensor_id;sensor_type;location;lat;lon;timestamp;P1;durP1;ratioP1;P2;durP2;ratioP2
57752;SDS011;43583;53.132;6.574;2022-07-23T00:00:07;5.78;;;4.43;;
57752;SDS011;43583;53.132;6.574;2022-07-23T00:02:33;4.82;;;4.22;;
57752;SDS011;43583;53.132;6.574;2022-07-23T00:04:59;5.45;;;3.83;;
57752;SDS011;43583;53.132;6.574;2022-07-23T00:07:25;4.95;;;3.65;;
57752;SDS011;43583;53.132;6.574;2022-07-23T00:09:50;7.30;;;4.47;;
57752;SDS011;43583;53.132;6.574;2022-07-23T00:12:16;8.25;;;4.80;;
57752;SDS011;43583;53.132;6.574;2022-07-23T00:14:42;5.40;;;4.35;;
57752;SDS011;43583;53.132;6.574;2022-07-23T00:17:07;5.38;;;4.57;;
57752;SDS011;43583;53.132;6.574;2022-07-23T00:19:33;7.07;;;5.00;;
57752;SDS011;43583;53.132;6.574;2022-07-23T00:21:58;9.20;;;4.43;;
57752;SDS011;43583;53.132;6.574;2022-07-23T00:24:24;4.22;;;3.78;;
57752;SDS011;43583;53.132;6.574;2022-07-23T00:26:49;4.55;;;4.15;;
57752;SDS011;43583;53.132;6.574;2022-07-23T00:29:15;7.32;;;4.47;;
57752;SDS011;43583;53.132;6.574;2022-07-23T00:31:40;5.05;;;4.55;;
57752;SDS011;43583;53.132;6.574;2022-07-23T00:34:06;3.67;;;3.38;;
57752;SDS011;43583;53.132;6.574;2022-07-23T00:36:32;4.25;;;3.78;;
57752;SDS011;43583;53.132;6.574;2022-07-23T00:38:57;4.82;;;4.03;;
57752;SDS011;43583;53.132;6.574;2022-07-23T00:41:23;3.85;;;3.47;;
57752;SDS011;43583;53.132;6.574;2022-07-23T00:43:48;5.40;;;3.92;;
57752;SDS011;43583;53.132;6.574;2022-07-23T00:46:18;6.35;;;4.30;;
57752;SDS011;43583;53.132;6.574;2022-07-23T00:48:45;5.80;;;3.08;;
57752;SDS011;43583;53.132;6.574;2022-07-23T00:51:10;5.97;;;3.75;;
57752;SDS011;43583;53.132;6.574;2022-07-23T00:53:36;7.43;;;3.75;;
57752;SDS011;43583;53.132;6.574;2022-07-23T00:56:02;6.72;;;4.22;;
57752;SDS011;43583;53.132;6.574;2022-07-23T00:58:27;5.30;;;3.65;;
57752;SDS011;43583;53.132;6.574;2022-07-23T01:00:53;7.03;;;3.85;;
57752;SDS011;43583;53.132;6.574;2022-07-23T01:03:19;5.47;;;3.35;;
57752;SDS011;43583;53.132;6.574;2022-07-23T01:05:44;4.30;;;3.90;;
57752;SDS011;43583;53.132;6.574;2022-07-23T01:08:10;6.63;;;3.75;;
57752;SDS011;43583;53.132;6.574;2022-07-23T01:10:36;6.55;;;4.10;;
57752;SDS011;43583;53.132;6.574;2022-07-23T01:13:03;5.40;;;4.25;;
57752;SDS011;43583;53.132;6.574;2022-07-23T01:15:30;4.88;;;3.80;;
57752;SDS011;43583;53.132;6.574;2022-07-23T01:17:57;3.38;;;3.15;;
57752;SDS011;43583;53.132;6.574;2022-07-23T01:20:23;8.85;;;4.07;;
57752;SDS011;43583;53.132;6.574;2022-07-23T01:22:48;6.60;;;3.88;;
57752;SDS011;43583;53.132;6.574;2022-07-23T01:25:14;3.75;;;3.42;;
57752;SDS011;43583;53.132;6.574;2022-07-23T01:27:40;6.45;;;4.70;;
57752;SDS011;43583;53.132;6.574;2022-07-23T01:30:07;9.00;;;5.03;;
57752;SDS011;43583;53.132;6.574;2022-07-23T01:32:33;4.97;;;3.47;;
57752;SDS011;43583;53.132;6.574;2022-07-23T01:34:59;11.35;;;3.90;;
57752;SDS011;43583;53.132;6.574;2022-07-23T01:37:24;7.47;;;4.03;;
57752;SDS011;43583;53.132;6.574;2022-07-23T01:39:50;6.30;;;3.45;;
57752;SDS011;43583;53.132;6.574;2022-07-23T01:42:15;4.30;;;3.90;;
57752;SDS011;43583;53.132;6.574;2022-07-23T01:44:41;4.63;;;3.60;;
57752;SDS011;43583;53.132;6.574;2022-07-23T01:47:07;6.72;;;4.88;;
57752;SDS011;43583;53.132;6.574;2022-07-23T01:49:32;6.70;;;3.53;;
57752;SDS011;43583;53.132;6.574;2022-07-23T01:51:58;7.68;;;4.22;;
57752;SDS011;43583;53.132;6.574;2022-07-23T01:54:26;4.07;;;3.67;;
57752;SDS011;43583;53.132;6.574;2022-07-23T01:56:56;4.25;;;3.15;;
57752;SDS011;43583;53.132;6.574;2022-07-23T01:59:23;3.83;;;3.20;;
57752;SDS011;43583;53.132;6.574;2022-07-23T02:01:48;6.90;;;3.38;;
57752;SDS011;43583;53.132;6.574;2022-07-23T02:04:18;8.80;;;5.38;;
57752;SDS011;43583;53.132;6.574;2022-07-23T02:06:44;6.70;;;3.50;;
57752;SDS011;43583;53.132;6.574;2022-07-23T02:09:10;4.68;;;4.03;;
57752;SDS011;43583;53.132;6.574;2022-07-23T02:11:35;5.40;;;3.65;;
57752;SDS011;43583;53.132;6.574;2022-07-23T02:14:01;4.78;;;4.38;;
57752;SDS011;43583;53.132;6.574;2022-07-23T02:16:27;4.72;;;3.67;;
57752;SDS011;43583;53.132;6.574;2022-07-23T02:18:52;4.82;;;3.92;;
57752;SDS011;43583;53.132;6.574;2022-07-23T02:21:18;10.07;;;5.03;;
57752;SDS011;43583;53.132;6.574;2022-07-23T02:23:43;10.65;;;5.07;;
57752;SDS011;43583;53.132;6.574;2022-07-23T02:26:09;8.15;;;4.45;;
57752;SDS011;43583;53.132;6.574;2022-07-23T02:28:35;8.40;;;4.88;;
57752;SDS011;43583;53.132;6.574;2022-07-23T02:31:00;10.70;;;6.43;;
57752;SDS011;43583;53.132;6.574;2022-07-23T02:33:26;6.55;;;5.20;;
57752;SDS011;43583;53.132;6.574;2022-07-23T02:35:51;6.60;;;5.38;;
57752;SDS011;43583;53.132;6.574;2022-07-23T02:38:17;5.90;;;3.85;;
57752;SDS011;43583;53.132;6.574;2022-07-23T02:40:42;6.95;;;5.03;;
57752;SDS011;43583;53.132;6.574;2022-07-23T02:43:08;12.20;;;5.88;;
57752;SDS011;43583;53.132;6.574;2022-07-23T02:45:33;7.93;;;6.22;;
57752;SDS011;43583;53.132;6.574;2022-07-23T02:47:59;10.55;;;6.97;;
57752;SDS011;43583;53.132;6.574;2022-07-23T02:50:24;8.13;;;6.60;;
57752;SDS011;43583;53.132;6.574;2022-07-23T02:52:50;9.32;;;7.15;;
57752;SDS011;43583;53.132;6.574;2022-07-23T02:55:15;11.82;;;8.27;;
57752;SDS011;43583;53.132;6.574;2022-07-23T02:57:41;10.25;;;6.82;;
57752;SDS011;43583;53.132;6.574;2022-07-23T03:00:07;7.60;;;6.28;;
57752;SDS011;43583;53.132;6.574;2022-07-23T03:02:33;9.35;;;6.90;;
57752;SDS011;43583;53.132;6.574;2022-07-23T03:04:59;7.80;;;6.97;;
57752;SDS011;43583;53.132;6.574;2022-07-23T03:07:24;11.95;;;7.57;;
57752;SDS011;43583;53.132;6.574;2022-07-23T03:09:50;10.38;;;7.18;;
57752;SDS011;43583;53.132;6.574;2022-07-23T03:12:15;10.95;;;8.00;;
57752;SDS011;43583;53.132;6.574;2022-07-23T03:14:41;10.10;;;7.25;;
57752;SDS011;43583;53.132;6.574;2022-07-23T03:17:06;14.02;;;7.38;;
57752;SDS011;43583;53.132;6.574;2022-07-23T03:19:32;9.20;;;6.95;;
57752;SDS011;43583;53.132;6.574;2022-07-23T03:21:58;10.25;;;6.30;;
57752;SDS011;43583;53.132;6.574;2022-07-23T03:24:24;10.68;;;6.82;;
57752;SDS011;43583;53.132;6.574;2022-07-23T03:27:09;18.15;;;8.43;;
57752;SDS011;43583;53.132;6.574;2022-07-23T03:29:35;9.20;;;7.05;;
57752;SDS011;43583;53.132;6.574;2022-07-23T03:32:02;17.80;;;9.00;;
57752;SDS011;43583;53.132;6.574;2022-07-23T03:34:28;12.40;;;8.35;;
57752;SDS011;43583;53.132;6.574;2022-07-23T03:36:54;11.43;;;7.57;;
57752;SDS011;43583;53.132;6.574;2022-07-23T03:39:19;11.18;;;7.45;;
57752;SDS011;43583;53.132;6.574;2022-07-23T03:41:45;10.07;;;6.85;;
57752;SDS011;43583;53.132;6.574;2022-07-23T03:44:10;10.88;;;6.75;;
57752;SDS011;43583;53.132;6.574;2022-07-23T03:46:36;13.05;;;7.30;;
57752;SDS011;43583;53.132;6.574;2022-07-23T03:49:01;7.88;;;7.03;;
57752;SDS011;43583;53.132;6.574;2022-07-23T03:51:27;9.35;;;7.00;;
57752;SDS011;43583;53.132;6.574;2022-07-23T03:53:52;9.48;;;6.07;;
57752;SDS011;43583;53.132;6.574;2022-07-23T03:56:19;7.50;;;5.50;;
57752;SDS011;43583;53.132;6.574;2022-07-23T03:58:45;10.02;;;5.63;;
57752;SDS011;43583;53.132;6.574;2022-07-23T04:01:10;12.73;;;7.22;;
57752;SDS011;43583;53.132;6.574;2022-07-23T04:03:36;10.23;;;6.22;;
57752;SDS011;43583;53.132;6.574;2022-07-23T04:06:02;9.02;;;6.53;;
57752;SDS011;43583;53.132;6.574;2022-07-23T04:08:28;12.95;;;7.45;;
57752;SDS011;43583;53.132;6.574;2022-07-23T04:10:53;8.77;;;6.68;;
57752;SDS011;43583;53.132;6.574;2022-07-23T04:13:19;9.27;;;6.60;;
57752;SDS011;43583;53.132;6.574;2022-07-23T04:15:45;10.00;;;6.43;;
57752;SDS011;43583;53.132;6.574;2022-07-23T04:18:11;10.52;;;6.85;;
57752;SDS011;43583;53.132;6.574;2022-07-23T04:20:37;10.23;;;7.65;;
57752;SDS011;43583;53.132;6.574;2022-07-23T04:23:02;12.07;;;6.80;;
57752;SDS011;43583;53.132;6.574;2022-07-23T04:25:28;8.32;;;6.38;;
57752;SDS011;43583;53.132;6.574;2022-07-23T04:27:53;6.82;;;5.68;;
57752;SDS011;43583;53.132;6.574;2022-07-23T04:30:19;8.18;;;6.25;;
57752;SDS011;43583;53.132;6.574;2022-07-23T04:32:45;8.88;;;6.97;;
57752;SDS011;43583;53.132;6.574;2022-07-23T04:35:10;9.88;;;6.90;;
57752;SDS011;43583;53.132;6.574;2022-07-23T04:37:36;8.93;;;6.72;;
57752;SDS011;43583;53.132;6.574;2022-07-23T04:40:01;11.00;;;6.20;;
57752;SDS011;43583;53.132;6.574;2022-07-23T04:42:27;10.60;;;7.57;;
57752;SDS011;43583;53.132;6.574;2022-07-23T04:44:53;8.73;;;7.13;;
57752;SDS011;43583;53.132;6.574;2022-07-23T04:47:18;8.25;;;6.25;;
57752;SDS011;43583;53.132;6.574;2022-07-23T04:49:44;6.88;;;6.00;;
57752;SDS011;43583;53.132;6.574;2022-07-23T04:52:09;7.03;;;6.00;;
57752;SDS011;43583;53.132;6.574;2022-07-23T04:54:38;6.13;;;5.07;;
57752;SDS011;43583;53.132;6.574;2022-07-23T04:57:03;8.25;;;6.22;;
57752;SDS011;43583;53.132;6.574;2022-07-23T04:59:29;9.93;;;5.47;;
57752;SDS011;43583;53.132;6.574;2022-07-23T05:01:54;7.75;;;5.07;;
57752;SDS011;43583;53.132;6.574;2022-07-23T05:04:20;7.55;;;5.30;;
57752;SDS011;43583;53.132;6.574;2022-07-23T05:06:45;5.18;;;4.68;;
57752;SDS011;43583;53.132;6.574;2022-07-23T05:09:11;7.30;;;5.57;;
57752;SDS011;43583;53.132;6.574;2022-07-23T05:11:36;8.70;;;5.78;;
57752;SDS011;43583;53.132;6.574;2022-07-23T05:14:02;4.47;;;3.95;;
57752;SDS011;43583;53.132;6.574;2022-07-23T05:16:27;5.05;;;4.55;;
57752;SDS011;43583;53.132;6.574;2022-07-23T05:18:53;5.38;;;4.45;;
57752;SDS011;43583;53.132;6.574;2022-07-23T05:21:19;5.63;;;4.15;;
57752;SDS011;43583;53.132;6.574;2022-07-23T05:23:44;4.68;;;3.95;;
57752;SDS011;43583;53.132;6.574;2022-07-23T05:26:10;3.67;;;3.10;;
57752;SDS011;43583;53.132;6.574;2022-07-23T05:28:36;4.32;;;2.78;;
57752;SDS011;43583;53.132;6.574;2022-07-23T05:31:01;3.92;;;2.58;;
57752;SDS011;43583;53.132;6.574;2022-07-23T05:33:28;3.65;;;2.35;;
57752;SDS011;43583;53.132;6.574;2022-07-23T05:35:59;3.80;;;2.38;;
57752;SDS011;43583;53.132;6.574;2022-07-23T05:38:26;3.53;;;2.35;;
57752;SDS011;43583;53.132;6.574;2022-07-23T05:40:52;4.22;;;2.63;;
57752;SDS011;43583;53.132;6.574;2022-07-23T05:43:17;2.65;;;2.33;;
57752;SDS011;43583;53.132;6.574;2022-07-23T05:45:43;3.28;;;1.63;;
57752;SDS011;43583;53.132;6.574;2022-07-23T05:48:08;4.60;;;2.83;;
57752;SDS011;43583;53.132;6.574;2022-07-23T05:50:34;2.85;;;1.70;;
57752;SDS011;43583;53.132;6.574;2022-07-23T05:52:59;2.25;;;1.88;;
57752;SDS011;43583;53.132;6.574;2022-07-23T05:55:25;2.53;;;1.88;;
57752;SDS011;43583;53.132;6.574;2022-07-23T05:57:53;2.17;;;1.25;;
57752;SDS011;43583;53.132;6.574;2022-07-23T06:00:23;2.15;;;1.60;;
57752;SDS011;43583;53.132;6.574;2022-07-23T06:02:48;4.70;;;1.27;;
57752;SDS011;43583;53.132;6.574;2022-07-23T06:05:14;2.08;;;1.05;;
57752;SDS011;43583;53.132;6.574;2022-07-23T06:07:40;1.98;;;0.60;;
57752;SDS011;43583;53.132;6.574;2022-07-23T06:10:06;1.88;;;0.80;;
57752;SDS011;43583;53.132;6.574;2022-07-23T06:12:32;1.15;;;0.60;;
57752;SDS011;43583;53.132;6.574;2022-07-23T06:14:58;2.22;;;0.82;;
57752;SDS011;43583;53.132;6.574;2022-07-23T06:17:24;2.30;;;0.30;;
57752;SDS011;43583;53.132;6.574;2022-07-23T06:19:50;1.20;;;0.30;;
57752;SDS011;43583;53.132;6.574;2022-07-23T06:22:15;1.20;;;0.10;;
57752;SDS011;43583;53.132;6.574;2022-07-23T06:24:41;1.90;;;0.10;;
57752;SDS011;43583;53.132;6.574;2022-07-23T06:27:06;1.40;;;0.20;;
57752;SDS011;43583;53.132;6.574;2022-07-23T06:29:32;1.38;;;0.10;;
57752;SDS011;43583;53.132;6.574;2022-07-23T06:31:57;3.15;;;0.20;;
57752;SDS011;43583;53.132;6.574;2022-07-23T06:34:23;0.75;;;0.20;;
57752;SDS011;43583;53.132;6.574;2022-07-23T06:36:49;1.52;;;0.10;;
57752;SDS011;43583;53.132;6.574;2022-07-23T06:39:15;1.50;;;0.20;;
57752;SDS011;43583;53.132;6.574;2022-07-23T06:41:40;2.33;;;0.10;;
57752;SDS011;43583;53.132;6.574;2022-07-23T06:44:06;0.60;;;0.10;;
57752;SDS011;43583;53.132;6.574;2022-07-23T06:46:32;0.30;;;0.10;;
57752;SDS011;43583;53.132;6.574;2022-07-23T06:48:58;3.03;;;0.20;;
57752;SDS011;43583;53.132;6.574;2022-07-23T06:51:24;0.80;;;0.20;;
57752;SDS011;43583;53.132;6.574;2022-07-23T06:53:49;0.55;;;0.10;;
57752;SDS011;43583;53.132;6.574;2022-07-23T06:56:15;2.42;;;0.20;;
57752;SDS011;43583;53.132;6.574;2022-07-23T06:58:41;1.63;;;0.10;;
57752;SDS011;43583;53.132;6.574;2022-07-23T07:01:06;1.85;;;0.20;;
57752;SDS011;43583;53.132;6.574;2022-07-23T07:03:32;0.57;;;0.17;;
57752;SDS011;43583;53.132;6.574;2022-07-23T07:05:57;2.05;;;0.38;;
57752;SDS011;43583;53.132;6.574;2022-07-23T07:08:23;0.45;;;0.10;;
57752;SDS011;43583;53.132;6.574;2022-07-23T07:10:49;1.20;;;0.10;;
57752;SDS011;43583;53.132;6.574;2022-07-23T07:13:14;0.95;;;0.20;;
57752;SDS011;43583;53.132;6.574;2022-07-23T07:15:40;1.25;;;0.10;;
57752;SDS011;43583;53.132;6.574;2022-07-23T07:18:06;1.35;;;0.13;;
57752;SDS011;43583;53.132;6.574;2022-07-23T07:20:31;0.40;;;0.00;;
57752;SDS011;43583;53.132;6.574;2022-07-23T07:22:57;0.80;;;0.00;;
57752;SDS011;43583;53.132;6.574;2022-07-23T07:25:22;0.40;;;0.03;;
57752;SDS011;43583;53.132;6.574;2022-07-23T07:27:48;0.82;;;0.00;;
57752;SDS011;43583;53.132;6.574;2022-07-23T07:30:14;1.80;;;0.00;;
57752;SDS011;43583;53.132;6.574;2022-07-23T07:32:39;0.57;;;0.00;;
57752;SDS011;43583;53.132;6.574;2022-07-23T07:35:05;0.82;;;0.00;;
57752;SDS011;43583;53.132;6.574;2022-07-23T07:37:31;0.73;;;0.10;;
57752;SDS011;43583;53.132;6.574;2022-07-23T07:39:57;0.55;;;0.00;;
57752;SDS011;43583;53.132;6.574;2022-07-23T07:42:22;1.92;;;0.00;;
57752;SDS011;43583;53.132;6.574;2022-07-23T07:44:48;1.15;;;0.00;;
57752;SDS011;43583;53.132;6.574;2022-07-23T07:47:13;2.25;;;0.00;;
57752;SDS011;43583;53.132;6.574;2022-07-23T07:49:40;0.43;;;0.00;;
57752;SDS011;43583;53.132;6.574;2022-07-23T07:52:07;1.15;;;0.00;;
57752;SDS011;43583;53.132;6.574;2022-07-23T07:54:32;0.13;;;0.03;;
57752;SDS011;43583;53.132;6.574;2022-07-23T07:56:58;0.55;;;0.10;;
57752;SDS011;43583;53.132;6.574;2022-07-23T07:59:24;0.60;;;0.00;;
57752;SDS011;43583;53.132;6.574;2022-07-23T08:01:50;0.08;;;0.00;;
57752;SDS011;43583;53.132;6.574;2022-07-23T08:04:16;1.50;;;0.00;;
57752;SDS011;43583;53.132;6.574;2022-07-23T08:06:41;0.63;;;0.00;;
57752;SDS011;43583;53.132;6.574;2022-07-23T08:09:07;0.55;;;0.00;;
57752;SDS011;43583;53.132;6.574;2022-07-23T08:11:33;1.40;;;0.00;;
57752;SDS011;43583;53.132;6.574;2022-07-23T08:13:58;0.30;;;0.00;;
57752;SDS011;43583;53.132;6.574;2022-07-23T08:16:24;2.03;;;0.32;;
57752;SDS011;43583;53.132;6.574;2022-07-23T08:18:49;2.58;;;0.20;;
57752;SDS011;43583;53.132;6.574;2022-07-23T08:21:15;0.45;;;0.10;;
57752;SDS011;43583;53.132;6.574;2022-07-23T08:23:44;0.00;;;0.00;;
57752;SDS011;43583;53.132;6.574;2022-07-23T08:26:09;0.43;;;0.00;;
57752;SDS011;43583;53.132;6.574;2022-07-23T08:28:36;1.27;;;0.08;;
57752;SDS011;43583;53.132;6.574;2022-07-23T08:31:01;1.38;;;0.00;;
57752;SDS011;43583;53.132;6.574;2022-07-23T08:33:27;0.40;;;0.03;;
57752;SDS011;43583;53.132;6.574;2022-07-23T08:35:53;0.28;;;0.00;;
57752;SDS011;43583;53.132;6.574;2022-07-23T08:38:20;1.58;;;0.05;;
57752;SDS011;43583;53.132;6.574;2022-07-23T08:40:47;0.20;;;0.00;;
57752;SDS011;43583;53.132;6.574;2022-07-23T08:43:16;0.30;;;0.00;;
57752;SDS011;43583;53.132;6.574;2022-07-23T08:45:44;0.17;;;0.03;;
57752;SDS011;43583;53.132;6.574;2022-07-23T08:48:18;0.35;;;0.00;;
57752;SDS011;43583;53.132;6.574;2022-07-23T08:50:46;0.82;;;0.00;;
57752;SDS011;43583;53.132;6.574;2022-07-23T08:53:15;0.65;;;0.00;;
57752;SDS011;43583;53.132;6.574;2022-07-23T08:55:48;0.43;;;0.00;;
57752;SDS011;43583;53.132;6.574;2022-07-23T08:58:15;1.73;;;0.25;;
57752;SDS011;43583;53.132;6.574;2022-07-23T09:00:41;0.17;;;0.00;;
57752;SDS011;43583;53.132;6.574;2022-07-23T09:03:12;0.40;;;0.00;;
57752;SDS011;43583;53.132;6.574;2022-07-23T09:05:41;0.80;;;0.00;;
57752;SDS011;43583;53.132;6.574;2022-07-23T09:08:11;0.52;;;0.00;;
57752;SDS011;43583;53.132;6.574;2022-07-23T09:10:42;0.95;;;0.10;;
57752;SDS011;43583;53.132;6.574;2022-07-23T09:16:14;0.25;;;0.00;;
57752;SDS011;43583;53.132;6.574;2022-07-23T09:18:43;1.40;;;0.10;;
57752;SDS011;43583;53.132;6.574;2022-07-23T09:23:59;1.25;;;0.08;;
57752;SDS011;43583;53.132;6.574;2022-07-23T09:26:38;1.05;;;0.00;;
57752;SDS011;43583;53.132;6.574;2022-07-23T09:31:53;0.98;;;0.00;;
57752;SDS011;43583;53.132;6.574;2022-07-23T09:34:29;1.10;;;0.00;;
57752;SDS011;43583;53.132;6.574;2022-07-23T09:37:09;1.42;;;0.10;;
57752;SDS011;43583;53.132;6.574;2022-07-23T09:39:38;1.85;;;0.00;;
57752;SDS011;43583;53.132;6.574;2022-07-23T09:44:43;1.40;;;0.10;;
57752;SDS011;43583;53.132;6.574;2022-07-23T09:47:09;0.80;;;0.10;;
57752;SDS011;43583;53.132;6.574;2022-07-23T09:49:35;0.47;;;0.10;;
57752;SDS011;43583;53.132;6.574;2022-07-23T09:52:01;1.45;;;0.10;;
57752;SDS011;43583;53.132;6.574;2022-07-23T09:54:37;0.52;;;0.00;;
57752;SDS011;43583;53.132;6.574;2022-07-23T09:59:38;1.08;;;0.10;;
57752;SDS011;43583;53.132;6.574;2022-07-23T10:02:04;1.27;;;0.10;;
57752;SDS011;43583;53.132;6.574;2022-07-23T10:04:31;1.55;;;0.00;;
57752;SDS011;43583;53.132;6.574;2022-07-23T10:06:58;2.28;;;0.35;;
57752;SDS011;43583;53.132;6.574;2022-07-23T10:09:32;1.17;;;0.10;;
57752;SDS011;43583;53.132;6.574;2022-07-23T10:12:02;1.38;;;0.10;;
57752;SDS011;43583;53.132;6.574;2022-07-23T10:14:47;0.60;;;0.10;;
57752;SDS011;43583;53.132;6.574;2022-07-23T10:17:16;0.77;;;0.00;;
57752;SDS011;43583;53.132;6.574;2022-07-23T10:19:42;0.70;;;0.00;;
57752;SDS011;43583;53.132;6.574;2022-07-23T10:22:12;0.82;;;0.22;;
57752;SDS011;43583;53.132;6.574;2022-07-23T10:27:42;0.47;;;0.00;;
57752;SDS011;43583;53.132;6.574;2022-07-23T10:39:17;0.57;;;0.10;;
57752;SDS011;43583;53.132;6.574;2022-07-23T10:41:47;0.90;;;0.10;;
57752;SDS011;43583;53.132;6.574;2022-07-23T10:44:16;1.38;;;0.10;;
57752;SDS011;43583;53.132;6.574;2022-07-23T10:46:55;0.40;;;0.08;;
57752;SDS011;43583;53.132;6.574;2022-07-23T10:49:43;0.50;;;0.08;;
57752;SDS011;43583;53.132;6.574;2022-07-23T10:52:19;1.65;;;0.10;;
57752;SDS011;43583;53.132;6.574;2022-07-23T10:54:54;0.88;;;0.10;;
57752;SDS011;43583;53.132;6.574;2022-07-23T10:57:46;1.13;;;0.20;;
57752;SDS011;43583;53.132;6.574;2022-07-23T11:00:16;0.25;;;0.10;;
57752;SDS011;43583;53.132;6.574;2022-07-23T11:02:47;1.55;;;0.00;;
57752;SDS011;43583;53.132;6.574;2022-07-23T11:05:15;1.08;;;0.10;;
57752;SDS011;43583;53.132;6.574;2022-07-23T11:24:02;0.75;;;0.10;;
57752;SDS011;43583;53.132;6.574;2022-07-23T11:31:57;1.70;;;0.17;;
57752;SDS011;43583;53.132;6.574;2022-07-23T11:34:31;3.97;;;0.17;;
57752;SDS011;43583;53.132;6.574;2022-07-23T11:37:02;1.55;;;0.20;;
57752;SDS011;43583;53.132;6.574;2022-07-23T11:39:29;2.03;;;0.10;;
57752;SDS011;43583;53.132;6.574;2022-07-23T11:41:56;0.57;;;0.10;;
57752;SDS011;43583;53.132;6.574;2022-07-23T11:44:29;0.47;;;0.10;;
57752;SDS011;43583;53.132;6.574;2022-07-23T11:46:57;0.47;;;0.10;;
57752;SDS011;43583;53.132;6.574;2022-07-23T11:49:24;0.93;;;0.10;;
57752;SDS011;43583;53.132;6.574;2022-07-23T11:52:09;0.70;;;0.10;;
57752;SDS011;43583;53.132;6.574;2022-07-23T11:54:46;1.23;;;0.13;;
57752;SDS011;43583;53.132;6.574;2022-07-23T11:57:13;1.70;;;0.10;;
57752;SDS011;43583;53.132;6.574;2022-07-23T11:59:39;3.33;;;0.10;;
57752;SDS011;43583;53.132;6.574;2022-07-23T12:02:06;1.90;;;0.22;;
57752;SDS011;43583;53.132;6.574;2022-07-23T12:04:41;2.05;;;0.10;;
57752;SDS011;43583;53.132;6.574;2022-07-23T12:07:30;1.25;;;0.10;;
57752;SDS011;43583;53.132;6.574;2022-07-23T12:10:10;0.82;;;0.10;;
57752;SDS011;43583;53.132;6.574;2022-07-23T12:12:38;0.50;;;0.10;;
57752;SDS011;43583;53.132;6.574;2022-07-23T12:15:05;0.85;;;0.10;;
57752;SDS011;43583;53.132;6.574;2022-07-23T12:17:33;1.75;;;0.20;;
57752;SDS011;43583;53.132;6.574;2022-07-23T12:20:00;1.58;;;0.25;;
57752;SDS011;43583;53.132;6.574;2022-07-23T12:22:33;0.70;;;0.10;;
57752;SDS011;43583;53.132;6.574;2022-07-23T12:25:05;1.85;;;0.10;;
57752;SDS011;43583;53.132;6.574;2022-07-23T12:27:33;5.15;;;0.30;;
57752;SDS011;43583;53.132;6.574;2022-07-23T12:30:14;0.60;;;0.20;;
57752;SDS011;43583;53.132;6.574;2022-07-23T12:32:47;1.85;;;0.30;;
57752;SDS011;43583;53.132;6.574;2022-07-23T12:35:16;1.25;;;0.32;;
57752;SDS011;43583;53.132;6.574;2022-07-23T12:37:42;1.30;;;0.10;;
57752;SDS011;43583;53.132;6.574;2022-07-23T12:40:23;1.00;;;0.10;;
57752;SDS011;43583;53.132;6.574;2022-07-23T12:42:54;1.10;;;0.10;;
57752;SDS011;43583;53.132;6.574;2022-07-23T12:48:24;1.20;;;0.30;;
57752;SDS011;43583;53.132;6.574;2022-07-23T12:50:56;1.80;;;0.10;;
57752;SDS011;43583;53.132;6.574;2022-07-23T12:53:30;1.30;;;0.15;;
57752;SDS011;43583;53.132;6.574;2022-07-23T12:55:59;1.30;;;0.10;;
57752;SDS011;43583;53.132;6.574;2022-07-23T13:03:54;1.75;;;0.20;;
57752;SDS011;43583;53.132;6.574;2022-07-23T13:06:22;1.05;;;0.20;;
57752;SDS011;43583;53.132;6.574;2022-07-23T13:08:47;1.20;;;0.20;;
57752;SDS011;43583;53.132;6.574;2022-07-23T13:11:13;1.45;;;0.10;;
57752;SDS011;43583;53.132;6.574;2022-07-23T13:13:39;0.80;;;0.10;;
57752;SDS011;43583;53.132;6.574;2022-07-23T13:16:06;1.33;;;0.20;;
57752;SDS011;43583;53.132;6.574;2022-07-23T13:18:31;0.82;;;0.20;;
57752;SDS011;43583;53.132;6.574;2022-07-23T13:20:57;0.93;;;0.10;;
57752;SDS011;43583;53.132;6.574;2022-07-23T13:23:23;0.50;;;0.10;;
57752;SDS011;43583;53.132;6.574;2022-07-23T13:25:49;1.65;;;0.10;;
57752;SDS011;43583;53.132;6.574;2022-07-23T13:28:17;0.75;;;0.17;;
57752;SDS011;43583;53.132;6.574;2022-07-23T13:30:43;0.73;;;0.30;;
57752;SDS011;43583;53.132;6.574;2022-07-23T13:33:10;1.58;;;0.10;;
57752;SDS011;43583;53.132;6.574;2022-07-23T13:35:36;0.85;;;0.15;;
57752;SDS011;43583;53.132;6.574;2022-07-23T13:38:02;0.65;;;0.20;;
57752;SDS011;43583;53.132;6.574;2022-07-23T13:40:28;0.47;;;0.10;;
57752;SDS011;43583;53.132;6.574;2022-07-23T13:42:54;0.88;;;0.17;;
57752;SDS011;43583;53.132;6.574;2022-07-23T13:45:20;1.27;;;0.20;;
57752;SDS011;43583;53.132;6.574;2022-07-23T13:47:45;0.30;;;0.10;;
57752;SDS011;43583;53.132;6.574;2022-07-23T13:50:11;1.70;;;0.10;;
57752;SDS011;43583;53.132;6.574;2022-07-23T13:52:37;1.90;;;0.22;;
57752;SDS011;43583;53.132;6.574;2022-07-23T13:55:03;1.60;;;0.10;;
57752;SDS011;43583;53.132;6.574;2022-07-23T13:57:30;0.50;;;0.10;;
57752;SDS011;43583;53.132;6.574;2022-07-23T13:59:56;2.72;;;0.20;;
57752;SDS011;43583;53.132;6.574;2022-07-23T14:02:22;0.93;;;0.10;;
57752;SDS011;43583;53.132;6.574;2022-07-23T14:04:48;0.55;;;0.10;;
57752;SDS011;43583;53.132;6.574;2022-07-23T14:07:14;0.63;;;0.10;;
57752;SDS011;43583;53.132;6.574;2022-07-23T14:09:40;0.30;;;0.10;;
57752;SDS011;43583;53.132;6.574;2022-07-23T14:12:06;1.25;;;0.20;;
57752;SDS011;43583;53.132;6.574;2022-07-23T14:14:32;0.45;;;0.10;;
57752;SDS011;43583;53.132;6.574;2022-07-23T14:16:58;1.55;;;0.10;;
57752;SDS011;43583;53.132;6.574;2022-07-23T14:19:24;1.48;;;0.10;;
57752;SDS011;43583;53.132;6.574;2022-07-23T14:21:49;2.05;;;0.40;;
57752;SDS011;43583;53.132;6.574;2022-07-23T14:24:15;0.30;;;0.10;;
57752;SDS011;43583;53.132;6.574;2022-07-23T14:26:41;2.25;;;0.10;;
57752;SDS011;43583;53.132;6.574;2022-07-23T14:29:06;1.13;;;0.20;;
57752;SDS011;43583;53.132;6.574;2022-07-23T14:31:32;0.95;;;0.10;;
57752;SDS011;43583;53.132;6.574;2022-07-23T14:33:58;0.80;;;0.10;;
57752;SDS011;43583;53.132;6.574;2022-07-23T14:36:24;1.23;;;0.17;;
57752;SDS011;43583;53.132;6.574;2022-07-23T14:38:50;0.80;;;0.20;;
57752;SDS011;43583;53.132;6.574;2022-07-23T14:41:16;1.20;;;0.10;;
57752;SDS011;43583;53.132;6.574;2022-07-23T14:43:42;0.60;;;0.20;;
57752;SDS011;43583;53.132;6.574;2022-07-23T14:46:08;1.45;;;0.38;;
57752;SDS011;43583;53.132;6.574;2022-07-23T14:48:33;3.85;;;0.25;;
57752;SDS011;43583;53.132;6.574;2022-07-23T14:50:59;1.38;;;0.20;;
57752;SDS011;43583;53.132;6.574;2022-07-23T14:53:25;0.70;;;0.10;;
57752;SDS011;43583;53.132;6.574;2022-07-23T14:55:50;0.90;;;0.20;;
57752;SDS011;43583;53.132;6.574;2022-07-23T14:58:16;0.40;;;0.10;;
57752;SDS011;43583;53.132;6.574;2022-07-23T15:00:42;1.85;;;0.20;;
57752;SDS011;43583;53.132;6.574;2022-07-23T15:03:08;1.23;;;0.10;;
57752;SDS011;43583;53.132;6.574;2022-07-23T15:05:33;3.00;;;1.08;;
57752;SDS011;43583;53.132;6.574;2022-07-23T15:07:59;1.30;;;0.30;;
57752;SDS011;43583;53.132;6.574;2022-07-23T15:10:24;0.57;;;0.10;;
57752;SDS011;43583;53.132;6.574;2022-07-23T15:12:50;1.85;;;0.20;;
57752;SDS011;43583;53.132;6.574;2022-07-23T15:15:15;1.67;;;0.22;;
57752;SDS011;43583;53.132;6.574;2022-07-23T15:17:42;1.10;;;0.15;;
57752;SDS011;43583;53.132;6.574;2022-07-23T15:20:08;0.55;;;0.10;;
57752;SDS011;43583;53.132;6.574;2022-07-23T15:22:34;1.67;;;0.10;;
57752;SDS011;43583;53.132;6.574;2022-07-23T15:24:59;2.22;;;0.17;;
57752;SDS011;43583;53.132;6.574;2022-07-23T15:27:25;0.80;;;0.10;;
57752;SDS011;43583;53.132;6.574;2022-07-23T15:29:51;0.50;;;0.10;;
57752;SDS011;43583;53.132;6.574;2022-07-23T15:32:17;3.90;;;0.20;;
57752;SDS011;43583;53.132;6.574;2022-07-23T15:34:42;0.95;;;0.20;;
57752;SDS011;43583;53.132;6.574;2022-07-23T15:37:08;0.68;;;0.35;;
57752;SDS011;43583;53.132;6.574;2022-07-23T15:39:34;1.33;;;0.10;;